Endurance — WDF8331 — position and weather

sailwx.info

Track history (hours):
 
Tides and Currents Weather Stations Pressure Air Temp Water Temp Dewpoint Dewpoint Depression Visibility Wind Speed Wind Dir Waves Ship Positions

Endurance

Owner: Enterprise Marine Services, LLC, San Antonio, TX. More information available from US FCC via Universal Licensing System and Coast Guard Vessel Documentation Center.

Last reported at 2018-Feb-24 13:21 UTC. Time now 2018-Feb-24 22:13 UTC.
Position N 29°35' W 094°25'.

Length 26 m; draft 2.8 m.

Type: Tug. MMSI: 367493740.

Date/timePositionNaut miles runAvg speedWind from/ knotsBaromVisibWave heightAir tempDewpointWater temp
2018-Feb-24 13:21N 29°35' W 094°25'1 3.2
2018-Feb-24 13:00N 29°36' W 094°24'3 0.9
2018-Feb-24 09:47N 29°37' W 094°21'0 0.0
2018-Feb-24 09:26N 29°37' W 094°21'0 0.0
2018-Feb-24 08:55N 29°37' W 094°21'0 0.0
2018-Feb-24 06:49N 29°37' W 094°21'0 0.0
2018-Feb-24 06:29N 29°37' W 094°21'0 0.0
2018-Feb-24 05:36N 29°37' W 094°21'0 0.0
2018-Feb-24 05:30N 29°37' W 094°21'0 0.0
2018-Feb-24 04:53N 29°37' W 094°21'0 0.0
2018-Feb-24 04:29N 29°37' W 094°21'0 0.0
2018-Feb-24 03:58N 29°37' W 094°21'0 0.0
2018-Feb-24 03:27N 29°37' W 094°21'0 0.0
2018-Feb-24 02:45N 29°37' W 094°21'0 0.0
2018-Feb-24 02:14N 29°37' W 094°21'0 0.0
2018-Feb-24 01:58N 29°37' W 094°21'0 0.0
2018-Feb-24 01:30N 29°37' W 094°21'0 0.0
2018-Feb-24 00:57N 29°37' W 094°21'0 0.0
2018-Feb-24 00:19N 29°37' W 094°21'0 0.0
2018-Feb-23 23:55N 29°37' W 094°21'0 0.0
2018-Feb-23 23:30N 29°37' W 094°21'1 1.8
2018-Feb-23 22:59N 29°37' W 094°20'2 4.7
2018-Feb-23 22:30N 29°38' W 094°18'2 4.8
2018-Feb-23 22:00N 29°39' W 094°15'2 4.2
2018-Feb-23 21:30N 29°40' W 094°13'2 4.8
2018-Feb-23 21:01N 29°41' W 094°10'2 4.5
2018-Feb-23 20:31N 29°42' W 094°08'2 4.8
2018-Feb-23 20:01N 29°44' W 094°06'3 4.9
2018-Feb-23 19:30N 29°45' W 094°04'2 5.0
2018-Feb-23 19:01N 29°47' W 094°02'3 5.0
2018-Feb-23 18:31N 29°49' W 093°60'2 4.2
2018-Feb-23 18:00N 29°50' W 093°57'3 5.1
2018-Feb-23 17:31N 29°52' W 093°56'3 6.1
2018-Feb-23 17:00N 29°54' W 093°54'3 6.5
2018-Feb-23 16:30N 29°57' W 093°52'3 5.2
2018-Feb-23 16:01N 29°59' W 093°50'3 6.0
2018-Feb-23 15:30N 29°60' W 093°46'3 6.4
2018-Feb-23 15:00N 30°02' W 093°44'3 6.4
2018-Feb-23 14:31N 30°04' W 093°41'1 1.9
2018-Feb-23 14:00N 30°03' W 093°40'0 0.0
2018-Feb-23 13:28N 30°03' W 093°40'0 0.0
2018-Feb-23 13:00N 30°03' W 093°40'0 0.0
2018-Feb-23 12:30N 30°03' W 093°40'0 0.0
2018-Feb-23 11:57N 30°03' W 093°40'0 0.0
2018-Feb-23 11:30N 30°03' W 093°40'0 0.8
2018-Feb-23 11:00N 30°04' W 093°39'0 0.4
2018-Feb-23 10:27N 30°03' W 093°39'0 0.4
2018-Feb-23 10:01N 30°04' W 093°40'0 0.0
2018-Feb-23 09:29N 30°04' W 093°40'0 0.8
2018-Feb-23 09:01N 30°04' W 093°39'3 5.5
2018-Feb-23 08:30N 30°04' W 093°36'3 5.1
2018-Feb-23 07:59N 30°04' W 093°33'13 4.2
2018-Feb-23 04:54N 30°06' W 093°18'1 3.2
2018-Feb-23 04:28N 30°05' W 093°17'2 4.5
2018-Feb-23 03:56N 30°03' W 093°16'2 4.8
2018-Feb-23 03:30N 30°01' W 093°14'3 4.3
2018-Feb-23 02:54N 29°59' W 093°13'1 2.4
2018-Feb-23 02:30N 29°59' W 093°12'2 3.7
2018-Feb-23 02:00N 29°57' W 093°10'2 3.5
2018-Feb-23 01:30N 29°56' W 093°09'1 2.3
2018-Feb-23 01:00N 29°56' W 093°08'40 4.6
2018-Feb-22 16:18N 29°51' W 092°22'1 4.2
2018-Feb-22 16:00N 29°51' W 092°20'2 3.8
2018-Feb-22 15:31N 29°50' W 092°18'2 4.6
2018-Feb-22 15:00N 29°49' W 092°16'3 5.1
2018-Feb-22 14:30N 29°48' W 092°14'2 3.9
2018-Feb-22 14:01N 29°47' W 092°12'2 3.6
2018-Feb-22 13:30N 29°47' W 092°09'2 4.9
2018-Feb-22 13:01N 29°48' W 092°07'2 4.6
2018-Feb-22 12:30N 29°48' W 092°04'2 3.3
2018-Feb-22 12:00N 29°49' W 092°02'2 3.8
2018-Feb-22 11:28N 29°50' W 092°00'2 3.9
2018-Feb-22 11:01N 29°50' W 091°58'2 3.9
2018-Feb-22 10:28N 29°51' W 091°56'52 4.0
2018-Feb-21 21:27N 29°36' W 090°58'4 5.0
2018-Feb-21 20:38N 29°33' W 090°54'1 5.3
2018-Feb-21 20:31N 29°33' W 090°54'3 5.1
2018-Feb-21 20:00N 29°32' W 090°51'3 5.3
2018-Feb-21 19:31N 29°32' W 090°48'2 4.4
2018-Feb-21 19:01N 29°33' W 090°46'2 4.1
2018-Feb-21 18:30N 29°34' W 090°44'2 4.3
2018-Feb-21 18:01N 29°36' W 090°43'2 3.0
2018-Feb-21 17:30N 29°36' W 090°41'0 0.1
2018-Feb-21 17:00N 29°36' W 090°41'0 0.0
2018-Feb-21 16:30N 29°36' W 090°41'0 0.1
2018-Feb-21 16:01N 29°36' W 090°41'1 2.2
2018-Feb-21 15:31N 29°36' W 090°40'3 5.0
2018-Feb-21 15:00N 29°35' W 090°37'1 2.2
2018-Feb-21 14:29N 29°35' W 090°36'0 0.0
2018-Feb-21 13:58N 29°35' W 090°36'0 0.0
2018-Feb-21 13:29N 29°35' W 090°36'1 3.1
2018-Feb-21 13:00N 29°34' W 090°34'3 5.1
2018-Feb-21 12:30N 29°34' W 090°31'24 0.5
2018-Feb-19 14:20N 29°57' W 090°23'  
Track history (hours):
 
Tides and Currents Weather Stations Pressure Air Temp Water Temp Dewpoint Dewpoint Depression Visibility Wind Speed Wind Dir Waves Ship Positions

Endurance

Owner: Enterprise Marine Services, LLC, San Antonio, TX. More information available from US FCC via Universal Licensing System and Coast Guard Vessel Documentation Center.

Last reported at 2018-Feb-24 13:21 UTC. Time now 2018-Feb-24 22:13 UTC.
Position N 29°35' W 094°25'.

Length 26 m; draft 2.8 m.

Type: Tug. MMSI: 367493740.

Date/timePositionNaut miles runAvg speedWind from/ knotsBaromVisibWave heightAir tempDewpointWater temp
2018-Feb-24 13:21N 29°35' W 094°25'1 3.2
2018-Feb-24 13:00N 29°36' W 094°24'3 0.9
2018-Feb-24 09:47N 29°37' W 094°21'0 0.0
2018-Feb-24 09:26N 29°37' W 094°21'0 0.0
2018-Feb-24 08:55N 29°37' W 094°21'0 0.0
2018-Feb-24 06:49N 29°37' W 094°21'0 0.0
2018-Feb-24 06:29N 29°37' W 094°21'0 0.0
2018-Feb-24 05:36N 29°37' W 094°21'0 0.0
2018-Feb-24 05:30N 29°37' W 094°21'0 0.0
2018-Feb-24 04:53N 29°37' W 094°21'0 0.0
2018-Feb-24 04:29N 29°37' W 094°21'0 0.0
2018-Feb-24 03:58N 29°37' W 094°21'0 0.0
2018-Feb-24 03:27N 29°37' W 094°21'0 0.0
2018-Feb-24 02:45N 29°37' W 094°21'0 0.0
2018-Feb-24 02:14N 29°37' W 094°21'0 0.0
2018-Feb-24 01:58N 29°37' W 094°21'0 0.0
2018-Feb-24 01:30N 29°37' W 094°21'0 0.0
2018-Feb-24 00:57N 29°37' W 094°21'0 0.0
2018-Feb-24 00:19N 29°37' W 094°21'0 0.0
2018-Feb-23 23:55N 29°37' W 094°21'0 0.0
2018-Feb-23 23:30N 29°37' W 094°21'1 1.8
2018-Feb-23 22:59N 29°37' W 094°20'2 4.7
2018-Feb-23 22:30N 29°38' W 094°18'2 4.8
2018-Feb-23 22:00N 29°39' W 094°15'2 4.2
2018-Feb-23 21:30N 29°40' W 094°13'2 4.8
2018-Feb-23 21:01N 29°41' W 094°10'2 4.5
2018-Feb-23 20:31N 29°42' W 094°08'2 4.8
2018-Feb-23 20:01N 29°44' W 094°06'3 4.9
2018-Feb-23 19:30N 29°45' W 094°04'2 5.0
2018-Feb-23 19:01N 29°47' W 094°02'3 5.0
2018-Feb-23 18:31N 29°49' W 093°60'2 4.2
2018-Feb-23 18:00N 29°50' W 093°57'3 5.1
2018-Feb-23 17:31N 29°52' W 093°56'3 6.1
2018-Feb-23 17:00N 29°54' W 093°54'3 6.5
2018-Feb-23 16:30N 29°57' W 093°52'3 5.2
2018-Feb-23 16:01N 29°59' W 093°50'3 6.0
2018-Feb-23 15:30N 29°60' W 093°46'3 6.4
2018-Feb-23 15:00N 30°02' W 093°44'3 6.4
2018-Feb-23 14:31N 30°04' W 093°41'1 1.9
2018-Feb-23 14:00N 30°03' W 093°40'0 0.0
2018-Feb-23 13:28N 30°03' W 093°40'0 0.0
2018-Feb-23 13:00N 30°03' W 093°40'0 0.0
2018-Feb-23 12:30N 30°03' W 093°40'0 0.0
2018-Feb-23 11:57N 30°03' W 093°40'0 0.0
2018-Feb-23 11:30N 30°03' W 093°40'0 0.8
2018-Feb-23 11:00N 30°04' W 093°39'0 0.4
2018-Feb-23 10:27N 30°03' W 093°39'0 0.4
2018-Feb-23 10:01N 30°04' W 093°40'0 0.0
2018-Feb-23 09:29N 30°04' W 093°40'0 0.8
2018-Feb-23 09:01N 30°04' W 093°39'3 5.5
2018-Feb-23 08:30N 30°04' W 093°36'3 5.1
2018-Feb-23 07:59N 30°04' W 093°33'13 4.2
2018-Feb-23 04:54N 30°06' W 093°18'1 3.2
2018-Feb-23 04:28N 30°05' W 093°17'2 4.5
2018-Feb-23 03:56N 30°03' W 093°16'2 4.8
2018-Feb-23 03:30N 30°01' W 093°14'3 4.3
2018-Feb-23 02:54N 29°59' W 093°13'1 2.4
2018-Feb-23 02:30N 29°59' W 093°12'2 3.7
2018-Feb-23 02:00N 29°57' W 093°10'2 3.5
2018-Feb-23 01:30N 29°56' W 093°09'1 2.3
2018-Feb-23 01:00N 29°56' W 093°08'40 4.6
2018-Feb-22 16:18N 29°51' W 092°22'1 4.2
2018-Feb-22 16:00N 29°51' W 092°20'2 3.8
2018-Feb-22 15:31N 29°50' W 092°18'2 4.6
2018-Feb-22 15:00N 29°49' W 092°16'3 5.1
2018-Feb-22 14:30N 29°48' W 092°14'2 3.9
2018-Feb-22 14:01N 29°47' W 092°12'2 3.6
2018-Feb-22 13:30N 29°47' W 092°09'2 4.9
2018-Feb-22 13:01N 29°48' W 092°07'2 4.6
2018-Feb-22 12:30N 29°48' W 092°04'2 3.3
2018-Feb-22 12:00N 29°49' W 092°02'2 3.8
2018-Feb-22 11:28N 29°50' W 092°00'2 3.9
2018-Feb-22 11:01N 29°50' W 091°58'2 3.9
2018-Feb-22 10:28N 29°51' W 091°56'52 4.0
2018-Feb-21 21:27N 29°36' W 090°58'4 5.0
2018-Feb-21 20:38N 29°33' W 090°54'1 5.3
2018-Feb-21 20:31N 29°33' W 090°54'3 5.1
2018-Feb-21 20:00N 29°32' W 090°51'3 5.3
2018-Feb-21 19:31N 29°32' W 090°48'2 4.4
2018-Feb-21 19:01N 29°33' W 090°46'2 4.1
2018-Feb-21 18:30N 29°34' W 090°44'2 4.3
2018-Feb-21 18:01N 29°36' W 090°43'2 3.0
2018-Feb-21 17:30N 29°36' W 090°41'0 0.1
2018-Feb-21 17:00N 29°36' W 090°41'0 0.0
2018-Feb-21 16:30N 29°36' W 090°41'0 0.1
2018-Feb-21 16:01N 29°36' W 090°41'1 2.2
2018-Feb-21 15:31N 29°36' W 090°40'3 5.0
2018-Feb-21 15:00N 29°35' W 090°37'1 2.2
2018-Feb-21 14:29N 29°35' W 090°36'0 0.0
2018-Feb-21 13:58N 29°35' W 090°36'0 0.0
2018-Feb-21 13:29N 29°35' W 090°36'1 3.1
2018-Feb-21 13:00N 29°34' W 090°34'3 5.1
2018-Feb-21 12:30N 29°34' W 090°31'24 0.5
2018-Feb-19 14:20N 29°57' W 090°23'  

Dump ship's entire track history